Time;durP1;ratioP1;P1;durP2;ratioP2;P2;SDS_P1;SDS_P2;PMS_P1;PMS_P2;Temp;Humidity;BMP_temperature;BMP_pressure;BME280_temperature;BME280_humidity;BME280_pressure;Samples;Min_cycle;Max_cycle;Signal;HPM_P1;HPM_P2
2021/07/03 00:02:00;;;;;;;7.20;5.63;;;21.40;99.90;;;;;;5096816;28;20048;-84
2021/07/03 00:04:26;;;;;;;9.95;7.13;;;21.40;99.90;;;;;;5096520;28;20378;-84
2021/07/03 00:06:52;;;;;;;9.23;7.57;;;21.40;99.90;;;;;;5096388;28;20024;-84
2021/07/03 00:09:19;;;;;;;8.48;7.18;;;21.40;99.90;;;;;;5096378;28;20039;-84
2021/07/03 00:11:46;;;;;;;10.50;6.80;;;21.50;99.90;;;;;;5095495;28;20394;-84
2021/07/03 00:14:12;;;;;;;7.63;5.85;;;21.50;99.90;;;;;;5094958;28;20028;-85
2021/07/03 00:16:38;;;;;;;6.93;5.35;;;21.50;99.90;;;;;;5096596;28;20032;-84
2021/07/03 00:19:04;;;;;;;9.57;5.20;;;21.50;99.90;;;;;;5094851;28;20027;-84
2021/07/03 00:21:30;;;;;;;5.93;4.57;;;21.40;99.90;;;;;;5094836;28;20024;-84
2021/07/03 00:23:56;;;;;;;4.93;4.43;;;21.40;99.90;;;;;;5096392;28;20023;-84
2021/07/03 00:26:22;;;;;;;6.53;4.80;;;21.40;99.90;;;;;;5094740;28;20086;-84
2021/07/03 00:28:48;;;;;;;5.50;4.45;;;21.40;99.90;;;;;;5095987;28;20020;-84
2021/07/03 00:31:14;;;;;;;5.93;4.20;;;21.30;99.90;;;;;;5080636;28;20047;-84
2021/07/03 00:33:39;;;;;;;7.90;4.45;;;21.30;99.90;;;;;;5075648;28;20099;-84
2021/07/03 00:36:05;;;;;;;6.03;4.90;;;21.30;99.90;;;;;;5075489;28;20025;-84
2021/07/03 00:38:31;;;;;;;5.13;4.38;;;21.20;99.90;;;;;;5075238;28;20080;-84
2021/07/03 00:40:56;;;;;;;6.95;4.38;;;21.10;99.90;;;;;;5075562;28;20025;-84
2021/07/03 00:43:22;;;;;;;5.18;4.05;;;21.10;99.90;;;;;;5091096;28;20483;-84
2021/07/03 00:45:48;;;;;;;6.22;4.50;;;21.10;99.90;;;;;;5075472;28;20070;-85
2021/07/03 00:48:13;;;;;;;7.35;5.22;;;21.10;99.90;;;;;;5077615;28;20020;-85
2021/07/03 00:50:39;;;;;;;10.27;4.45;;;21.10;99.90;;;;;;5095797;28;20127;-85
2021/07/03 00:53:05;;;;;;;4.40;4.00;;;21.10;99.90;;;;;;5094264;28;20024;-84
2021/07/03 00:55:32;;;;;;;6.82;4.47;;;21.10;99.90;;;;;;5095468;28;20012;-84
2021/07/03 00:57:58;;;;;;;5.10;4.30;;;21.10;99.90;;;;;;5094146;28;20111;-84
2021/07/03 01:00:24;;;;;;;6.57;4.43;;;21.10;99.90;;;;;;5094064;28;20423;-84
2021/07/03 01:02:49;;;;;;;6.60;5.03;;;21.10;99.90;;;;;;5095283;28;20020;-84
2021/07/03 01:05:17;;;;;;;6.90;4.72;;;21.10;99.90;;;;;;5095309;28;20122;-84
2021/07/03 01:07:43;;;;;;;6.78;5.35;;;21.00;99.90;;;;;;5093656;28;20028;-84
2021/07/03 01:10:24;;;;;;;6.00;5.30;;;21.00;99.90;;;;;;5074905;28;20020;-84
2021/07/03 01:12:51;;;;;;;7.53;5.20;;;21.00;99.90;;;;;;5074815;28;20028;-83
2021/07/03 01:15:17;;;;;;;9.00;5.53;;;21.00;99.90;;;;;;5074810;28;20020;-83
2021/07/03 01:17:43;;;;;;;9.15;5.90;;;20.90;99.90;;;;;;5074570;28;20032;-84
2021/07/03 01:20:10;;;;;;;8.05;6.35;;;20.90;99.90;;;;;;5074861;28;20494;-84
2021/07/03 01:22:37;;;;;;;6.85;6.15;;;20.80;99.90;;;;;;5074933;28;20028;-84
2021/07/03 01:25:04;;;;;;;7.15;5.82;;;20.80;99.90;;;;;;5074616;28;20017;-84
2021/07/03 01:27:30;;;;;;;9.55;6.40;;;20.70;99.90;;;;;;5074558;28;20031;-84
2021/07/03 01:29:55;;;;;;;7.85;6.28;;;20.70;99.90;;;;;;5073275;28;20024;-84
2021/07/03 01:32:22;;;;;;;7.78;6.63;;;20.60;99.90;;;;;;5073253;28;20079;-83
2021/07/03 01:34:48;;;;;;;8.75;6.80;;;20.60;99.90;;;;;;5088076;28;20031;-84
2021/07/03 01:37:14;;;;;;;9.32;6.75;;;20.60;99.90;;;;;;5093386;28;20028;-84
2021/07/03 01:39:40;;;;;;;11.65;7.03;;;20.60;99.90;;;;;;5094406;28;20044;-84
2021/07/03 01:42:07;;;;;;;11.70;7.55;;;20.60;99.90;;;;;;5093311;28;20359;-84
2021/07/03 01:44:34;;;;;;;10.95;7.03;;;20.60;99.90;;;;;;5093238;28;20422;-84
2021/07/03 01:47:02;;;;;;;12.80;7.45;;;20.60;99.90;;;;;;5093183;28;20073;-84
2021/07/03 01:49:29;;;;;;;11.93;7.28;;;20.60;99.90;;;;;;5094295;28;20470;-84
2021/07/03 01:51:55;;;;;;;14.07;6.68;;;20.60;99.90;;;;;;5094698;28;20028;-84
2021/07/03 01:54:22;;;;;;;14.10;7.38;;;20.60;99.90;;;;;;5092653;28;20466;-84
2021/07/03 01:56:58;;;;;;;12.27;7.10;;;20.60;99.90;;;;;;5093080;28;20103;-84
2021/07/03 01:59:31;;;;;;;10.63;7.05;;;20.60;99.90;;;;;;5094219;28;20024;-84
2021/07/03 02:01:59;;;;;;;14.95;7.68;;;20.50;99.90;;;;;;5092506;28;20024;-84
2021/07/03 02:04:25;;;;;;;15.45;8.50;;;20.50;99.90;;;;;;5092950;28;20125;-84
2021/07/03 02:06:50;;;;;;;14.60;8.52;;;20.50;99.90;;;;;;5094500;28;20038;-84
2021/07/03 02:09:17;;;;;;;13.13;8.52;;;20.50;99.90;;;;;;5092883;28;20118;-82
2021/07/03 02:11:44;;;;;;;15.07;9.68;;;20.50;99.90;;;;;;5094112;28;20475;-83
2021/07/03 02:14:10;;;;;;;17.25;10.35;;;20.50;99.90;;;;;;5076048;28;20036;-83
2021/07/03 02:16:36;;;;;;;20.17;10.45;;;20.50;99.90;;;;;;5074832;28;20025;-83
2021/07/03 02:19:03;;;;;;;30.60;13.45;;;20.50;99.90;;;;;;5073973;28;20031;-83
2021/07/03 02:21:30;;;;;;;24.55;12.90;;;20.40;99.90;;;;;;5075035;28;20028;-83
2021/07/03 02:23:55;;;;;;;29.83;12.95;;;20.40;99.90;;;;;;5083006;28;20020;-83
2021/07/03 02:26:22;;;;;;;27.45;13.10;;;20.40;99.90;;;;;;5073961;28;20028;-84
2021/07/03 02:28:50;;;;;;;26.38;12.73;;;20.30;99.90;;;;;;5072467;28;20036;-83
2021/07/03 02:31:16;;;;;;;27.20;11.40;;;20.40;99.90;;;;;;5080844;28;20037;-84
2021/07/03 02:33:42;;;;;;;20.00;10.35;;;20.40;99.90;;;;;;5094097;28;20020;-84
2021/07/03 02:36:08;;;;;;;18.17;10.68;;;20.40;99.90;;;;;;5094055;28;20039;-84
2021/07/03 02:38:34;;;;;;;19.60;10.63;;;20.40;99.90;;;;;;5084276;28;20498;-84
2021/07/03 02:41:00;;;;;;;17.70;10.13;;;20.40;99.90;;;;;;5083960;28;20028;-84
2021/07/03 02:43:26;;;;;;;20.13;11.48;;;20.40;99.90;;;;;;5092405;28;20374;-83
2021/07/03 02:45:51;;;;;;;19.17;12.23;;;20.40;99.90;;;;;;5078797;28;20052;-84
2021/07/03 02:48:17;;;;;;;17.30;10.90;;;20.40;99.90;;;;;;5078280;28;20024;-83
2021/07/03 02:50:43;;;;;;;15.45;10.63;;;20.40;99.90;;;;;;5080721;28;20020;-83
2021/07/03 02:53:08;;;;;;;16.20;10.65;;;20.50;99.90;;;;;;5093960;28;20472;-84
2021/07/03 02:55:34;;;;;;;14.70;8.82;;;20.50;99.90;;;;;;5092348;28;20020;-84
2021/07/03 02:58:00;;;;;;;11.23;8.35;;;20.50;99.90;;;;;;5089241;28;20459;-85
2021/07/03 18:28:38;;;;;;;10.70;8.38;;;24.60;99.40;;;;;;5092890;28;20370;-93
2021/07/03 18:31:04;;;;;;;61.13;33.22;;;24.60;99.70;;;;;;5091847;28;20081;-86
2021/07/03 18:33:32;;;;;;;29.58;16.95;;;24.60;99.90;;;;;;5090239;28;20115;-94
2021/07/03 18:35:57;;;;;;;21.17;14.40;;;24.60;99.90;;;;;;5091894;28;20090;-92
2021/07/03 18:38:23;;;;;;;14.70;10.80;;;24.60;99.90;;;;;;5091445;28;20036;-85
2021/07/03 18:40:49;;;;;;;117.18;105.80;;;24.50;99.90;;;;;;5092988;28;20028;-91
2021/07/03 18:43:16;;;;;;;14.52;13.00;;;24.50;99.90;;;;;;5089898;28;20070;-92
2021/07/03 18:45:42;;;;;;;14.00;8.90;;;24.40;99.90;;;;;;5091396;28;20031;-88
2021/07/03 18:48:07;;;;;;;11.15;7.70;;;24.40;99.90;;;;;;5087896;28;20025;-88
2021/07/03 18:50:35;;;;;;;8.23;7.43;;;24.40;99.90;;;;;;5091185;28;20091;-89
2021/07/03 18:53:02;;;;;;;12.32;8.40;;;24.40;99.90;;;;;;5089995;28;20016;-92
2021/07/03 18:55:27;;;;;;;9.25;8.15;;;24.30;99.90;;;;;;5092057;28;20157;-92
2021/07/03 18:57:53;;;;;;;9.25;7.70;;;24.30;99.90;;;;;;5076326;28;20120;-88
2021/07/03 19:00:19;;;;;;;10.10;9.10;;;24.30;99.90;;;;;;5069620;28;20111;-91
2021/07/03 19:02:45;;;;;;;10.55;8.32;;;24.20;99.90;;;;;;5071265;28;20040;-95
2021/07/03 19:05:12;;;;;;;10.13;8.20;;;24.20;99.90;;;;;;5069138;28;20025;-87
2021/07/03 19:07:38;;;;;;;10.40;8.25;;;24.20;99.90;;;;;;5070221;28;20494;-87
2021/07/03 19:10:05;;;;;;;11.10;8.40;;;24.30;99.90;;;;;;5073720;28;20021;-88
2021/07/03 19:12:31;;;;;;;9.10;7.85;;;24.30;99.90;;;;;;5093973;28;20034;-87
2021/07/03 19:14:58;;;;;;;9.18;7.65;;;24.30;99.90;;;;;;5090220;28;20025;-89
2021/07/03 19:17:24;;;;;;;31.15;20.88;;;24.30;99.90;;;;;;5088867;28;20024;-86
2021/07/03 19:19:50;;;;;;;20.23;14.20;;;24.30;99.90;;;;;;5088804;28;20028;-87
2021/07/03 19:22:16;;;;;;;10.77;9.65;;;24.30;99.90;;;;;;5088750;28;20024;-87
2021/07/03 19:24:41;;;;;;;16.83;9.07;;;24.30;99.90;;;;;;5088630;28;20024;-87
2021/07/03 19:27:07;;;;;;;10.98;9.88;;;24.30;99.90;;;;;;5088337;28;20403;-87
2021/07/03 19:29:33;;;;;;;15.80;13.73;;;24.30;99.90;;;;;;5088841;28;20021;-86
2021/07/03 19:31:59;;;;;;;15.82;11.43;;;24.30;99.90;;;;;;5088392;28;20021;-87
2021/07/03 19:34:25;;;;;;;10.18;9.07;;;24.30;99.90;;;;;;5087828;28;20020;-85
2021/07/03 19:36:50;;;;;;;9.75;8.38;;;24.30;99.90;;;;;;5087909;28;20025;-83
2021/07/03 19:39:16;;;;;;;9.68;8.68;;;24.30;99.90;;;;;;5078148;28;20101;-85
2021/07/03 19:41:42;;;;;;;9.30;8.02;;;24.30;99.90;;;;;;5074216;28;20028;-86
2021/07/03 19:44:09;;;;;;;9.30;8.30;;;24.30;99.90;;;;;;5075453;28;20489;-82
2021/07/03 19:46:35;;;;;;;11.25;7.78;;;24.30;99.90;;;;;;5075330;28;20107;-84
2021/07/03 19:49:01;;;;;;;13.77;10.10;;;24.30;99.90;;;;;;5075370;28;20017;-83
2021/07/03 19:51:27;;;;;;;11.40;9.63;;;24.30;99.90;;;;;;5075366;28;20090;-84
2021/07/03 19:53:53;;;;;;;19.98;10.30;;;24.20;99.90;;;;;;5074049;28;20051;-86
2021/07/03 19:56:19;;;;;;;10.95;9.68;;;24.20;99.90;;;;;;5073952;28;20374;-83
2021/07/03 19:58:45;;;;;;;11.63;9.73;;;24.20;99.90;;;;;;5073883;28;20035;-91
2021/07/03 20:01:10;;;;;;;13.90;10.50;;;24.20;99.90;;;;;;5074133;28;20056;-86
2021/07/03 20:03:36;;;;;;;12.57;10.20;;;24.20;99.90;;;;;;5075101;28;20528;-83
2021/07/03 20:06:02;;;;;;;14.48;10.82;;;24.20;99.90;;;;;;5073830;28;20065;-88
2021/07/03 20:08:29;;;;;;;12.57;10.90;;;24.30;99.90;;;;;;5073616;28;20407;-85
2021/07/03 20:10:55;;;;;;;11.65;10.45;;;24.30;99.90;;;;;;5073947;28;20023;-85
2021/07/03 20:13:21;;;;;;;15.48;11.32;;;24.30;99.90;;;;;;5058922;28;20482;-88
2021/07/03 20:15:47;;;;;;;12.52;10.70;;;24.30;99.90;;;;;;5054125;28;20086;-86
2021/07/03 20:18:12;;;;;;;13.48;10.38;;;24.30;99.90;;;;;;5053527;28;20395;-86
2021/07/03 20:20:39;;;;;;;12.20;10.60;;;24.30;99.90;;;;;;5053550;28;20036;-86
2021/07/03 20:23:06;;;;;;;14.70;11.50;;;24.40;99.90;;;;;;5054692;28;20383;-86
2021/07/03 20:25:33;;;;;;;15.13;11.50;;;24.40;99.90;;;;;;5054750;28;20032;-86
2021/07/03 20:28:00;;;;;;;12.90;11.52;;;24.40;99.90;;;;;;5054342;28;20049;-84
2021/07/03 20:30:26;;;;;;;15.48;13.05;;;24.40;99.90;;;;;;5053359;28;20025;-83
2021/07/03 20:32:54;;;;;;;58.72;47.55;;;24.40;99.90;;;;;;5064744;28;20103;-83
2021/07/03 20:35:21;;;;;;;25.65;21.10;;;24.40;99.90;;;;;;5074394;28;20044;-81
2021/07/03 20:37:47;;;;;;;19.08;15.13;;;24.40;99.90;;;;;;5073268;28;20032;-84
2021/07/03 20:40:14;;;;;;;17.20;14.55;;;24.50;99.90;;;;;;5073127;28;20055;-84
2021/07/03 20:42:41;;;;;;;13.43;12.00;;;24.50;99.90;;;;;;5074349;28;20475;-83
2021/07/03 20:45:07;;;;;;;12.38;11.13;;;24.50;99.90;;;;;;5073081;28;20032;-82
2021/07/03 20:47:33;;;;;;;13.25;10.63;;;24.50;99.90;;;;;;5074253;28;20111;-86
2021/07/03 20:49:59;;;;;;;12.70;11.40;;;24.50;99.90;;;;;;5072004;28;20044;-85
2021/07/03 20:52:25;;;;;;;11.48;10.30;;;24.50;99.90;;;;;;5072711;28;20471;-86
2021/07/03 20:54:51;;;;;;;13.27;11.25;;;24.50;99.90;;;;;;5071955;28;20044;-86
2021/07/03 20:57:18;;;;;;;11.38;10.23;;;24.50;99.90;;;;;;5052835;28;20059;-88
2021/07/03 20:59:44;;;;;;;132.60;16.40;;;24.50;99.90;;;;;;5054135;28;20017;-83
2021/07/03 21:02:10;;;;;;;11.07;9.10;;;24.50;99.90;;;;;;5054008;28;20492;-85
2021/07/03 21:04:35;;;;;;;14.48;12.98;;;24.40;99.90;;;;;;5054065;28;20025;-90
2021/07/03 21:07:01;;;;;;;15.90;12.02;;;24.40;99.90;;;;;;5053815;28;20112;-90
2021/07/03 21:09:27;;;;;;;11.90;10.48;;;24.30;99.90;;;;;;5055206;28;20628;-91
2021/07/03 21:11:53;;;;;;;11.70;10.35;;;24.30;99.90;;;;;;5054852;28;20162;-86
2021/07/03 21:14:20;;;;;;;18.08;14.27;;;24.20;99.90;;;;;;5053560;28;20025;-86
2021/07/03 21:16:46;;;;;;;13.60;10.70;;;24.10;99.90;;;;;;5070726;28;20031;-85
2021/07/03 21:19:12;;;;;;;11.48;10.32;;;24.10;99.90;;;;;;5074635;28;20394;-86
2021/07/03 21:21:38;;;;;;;12.43;10.40;;;24.00;99.90;;;;;;5074454;28;20020;-87
2021/07/03 21:24:04;;;;;;;12.43;10.02;;;23.90;99.90;;;;;;5073242;28;20029;-96
2021/07/03 21:26:30;;;;;;;12.32;10.68;;;23.90;99.90;;;;;;5074631;28;20033;-89
2021/07/03 21:28:56;;;;;;;62.00;39.80;;;23.90;99.90;;;;;;5073760;28;20078;-89
2021/07/03 21:31:21;;;;;;;67.75;49.63;;;23.80;99.90;;;;;;5073594;28;20028;-88
2021/07/03 21:33:48;;;;;;;87.65;70.70;;;23.80;99.90;;;;;;5073515;28;20027;-87
2021/07/03 21:36:14;;;;;;;82.43;56.28;;;23.80;99.90;;;;;;5060139;28;20360;-90
2021/07/03 21:38:40;;;;;;;46.05;31.63;;;23.80;99.90;;;;;;5053155;28;20430;-87
2021/07/03 21:41:06;;;;;;;34.50;27.00;;;23.80;99.90;;;;;;5054566;28;20082;-88
2021/07/03 21:43:31;;;;;;;27.55;21.40;;;23.70;99.90;;;;;;5053777;28;20036;-88
2021/07/03 21:45:59;;;;;;;22.85;17.13;;;23.80;99.90;;;;;;5052112;28;20391;-87
2021/07/03 21:48:25;;;;;;;27.38;20.90;;;23.70;99.90;;;;;;5051794;28;20025;-83
2021/07/03 21:50:51;;;;;;;22.05;17.45;;;23.70;99.90;;;;;;5053055;28;20128;-83
2021/07/03 21:53:17;;;;;;;18.10;14.93;;;23.70;99.90;;;;;;5053125;28;20096;-84
2021/07/03 21:55:44;;;;;;;15.38;11.80;;;23.60;99.90;;;;;;5057781;28;20029;-83
2021/07/03 21:58:10;;;;;;;35.72;25.65;;;23.50;99.90;;;;;;5070968;28;20093;-84
2021/07/03 22:00:39;;;;;;;63.28;56.35;;;23.50;99.90;;;;;;5071060;28;20036;-84
2021/07/03 22:03:07;;;;;;;22.13;18.38;;;23.40;99.90;;;;;;5066148;28;20033;-83
2021/07/03 22:05:35;;;;;;;15.80;13.30;;;23.40;99.90;;;;;;5069985;28;20024;-84
2021/07/03 22:08:03;;;;;;;13.45;11.15;;;23.40;99.90;;;;;;5071505;28;20036;-84
2021/07/03 22:10:28;;;;;;;12.10;10.13;;;23.40;99.90;;;;;;5072848;28;20056;-83
2021/07/03 22:12:54;;;;;;;10.98;9.88;;;23.40;99.90;;;;;;5065924;28;20052;-83
2021/07/03 22:15:20;;;;;;;11.55;10.45;;;23.40;99.90;;;;;;5060794;28;20036;-85
2021/07/03 22:17:46;;;;;;;13.18;10.77;;;23.30;99.90;;;;;;5059569;28;20037;-85
2021/07/03 22:20:13;;;;;;;14.63;10.32;;;23.20;99.90;;;;;;5052066;28;20033;-89
2021/07/03 22:22:39;;;;;;;14.75;10.65;;;23.20;99.90;;;;;;5051531;28;20471;-88
2021/07/03 22:25:06;;;;;;;12.02;10.00;;;23.10;99.90;;;;;;5050948;28;20051;-86
2021/07/03 22:27:32;;;;;;;11.52;9.82;;;23.10;99.90;;;;;;5051110;28;20490;-86
2021/07/03 22:29:58;;;;;;;10.00;8.45;;;23.10;99.90;;;;;;5051488;28;20028;-87
2021/07/03 22:32:24;;;;;;;14.30;9.68;;;23.10;99.90;;;;;;5056366;28;20536;-87
2021/07/03 22:34:50;;;;;;;10.63;9.60;;;23.20;99.90;;;;;;5071459;28;20025;-81
2021/07/03 22:37:15;;;;;;;11.05;9.90;;;23.10;99.90;;;;;;5072529;28;20024;-81
2021/07/03 22:39:41;;;;;;;12.48;10.07;;;23.10;99.90;;;;;;5072716;28;20078;-81
2021/07/03 22:42:07;;;;;;;11.45;9.07;;;23.10;99.90;;;;;;5072557;28;20024;-80
2021/07/03 22:44:32;;;;;;;10.02;9.02;;;23.00;99.90;;;;;;5072524;28;20063;-81
2021/07/03 22:46:58;;;;;;;11.43;9.65;;;23.00;99.90;;;;;;5072526;28;20094;-81
2021/07/03 22:49:24;;;;;;;11.68;10.48;;;23.00;99.90;;;;;;5071306;28;20136;-81
2021/07/03 22:51:50;;;;;;;11.98;10.75;;;23.00;99.90;;;;;;5072543;28;20016;-81
2021/07/03 22:54:16;;;;;;;13.07;11.40;;;22.90;99.90;;;;;;5052912;28;20025;-81
2021/07/03 22:56:42;;;;;;;14.85;11.90;;;22.80;99.90;;;;;;5052435;28;20032;-81
2021/07/03 22:59:08;;;;;;;12.70;11.40;;;22.80;99.90;;;;;;5067749;28;20033;-81
2021/07/03 23:01:33;;;;;;;14.07;11.50;;;22.80;99.90;;;;;;5052334;28;20029;-81
2021/07/03 23:03:59;;;;;;;15.25;12.32;;;22.70;99.90;;;;;;5052389;28;20104;-81
2021/07/03 23:06:25;;;;;;;15.40;13.70;;;22.70;99.90;;;;;;5052259;28;20163;-81
2021/07/03 23:08:51;;;;;;;15.07;13.07;;;22.60;99.90;;;;;;5067382;28;20458;-81
2021/07/03 23:11:16;;;;;;;13.32;12.02;;;22.50;99.90;;;;;;5072309;28;20425;-81
2021/07/03 23:13:42;;;;;;;15.68;13.35;;;22.50;99.90;;;;;;5073119;28;20024;-81
2021/07/03 23:16:08;;;;;;;16.38;14.27;;;22.50;99.90;;;;;;5074854;28;20375;-81
2021/07/03 23:18:33;;;;;;;21.80;17.55;;;22.40;99.90;;;;;;5075416;28;20130;-81
2021/07/03 23:20:59;;;;;;;17.02;15.27;;;22.20;99.90;;;;;;5075896;28;20444;-81
2021/07/03 23:23:26;;;;;;;18.95;16.40;;;22.20;99.90;;;;;;5075978;28;20498;-81
2021/07/03 23:25:52;;;;;;;16.00;14.18;;;22.10;99.90;;;;;;5075807;28;20436;-81
2021/07/03 23:28:21;;;;;;;16.30;14.27;;;22.20;99.90;;;;;;5075299;28;20041;-81
2021/07/03 23:30:48;;;;;;;16.37;13.83;;;22.20;99.90;;;;;;5075816;28;20078;-81
2021/07/03 23:33:16;;;;;;;15.85;14.15;;;22.20;99.90;;;;;;5075813;28;20021;-80
2021/07/03 23:35:43;;;;;;;15.25;13.32;;;22.30;99.90;;;;;;5075715;28;20021;-81
2021/07/03 23:38:09;;;;;;;15.80;13.65;;;22.20;99.90;;;;;;5068602;28;20029;-81
2021/07/03 23:40:35;;;;;;;16.00;12.95;;;22.20;99.90;;;;;;5055562;28;20030;-81
2021/07/03 23:43:01;;;;;;;17.17;14.52;;;22.20;99.90;;;;;;5055466;28;20051;-81
2021/07/03 23:45:28;;;;;;;14.43;12.93;;;22.10;99.90;;;;;;5055591;28;20029;-81
2021/07/03 23:47:54;;;;;;;15.27;13.68;;;22.10;99.90;;;;;;5055392;28;20021;-81
2021/07/03 23:50:23;;;;;;;16.42;13.43;;;22.10;99.90;;;;;;5055438;28;20037;-81
2021/07/03 23:52:50;;;;;;;13.43;12.02;;;22.10;99.90;;;;;;5055323;28;20017;-81
2021/07/03 23:55:16;;;;;;;13.40;11.45;;;22.10;99.90;;;;;;5055245;28;20482;-81
2021/07/03 23:57:43;;;;;;;12.55;11.25;;;22.10;99.90;;;;;;5058220;28;20421;-81
